Terminal Aerodrome Forecast
Issued by NWS Corpus Christi, TX

Home | Current Version | Previous Version | Text Only | Print | Product List | Glossary On
Versions: 1 2 3 4 5 6 7 8 9 10 11 12 13 14 15 16 17 18 19 20 21
000
FTUS44 KCRP 231125
TAFCRP
TAF
KCRP 231125Z 2312/2412 15007KT P6SM VCSH SCT015 SCT025 OVC080
      TEMPO 2312/2314 BKN015
     FM231500 15015G20KT P6SM SCT015 BKN025
     FM231900 13018G25KT P6SM VCTS SCT025CB OVC100
      TEMPO 2319/2322 VRB15G30KT 2SM +TSRA BR OVC015CB
     FM240200 13015KT P6SM SCT015
     FM240700 15015G22KT P6SM VCTS BKN015CB=

USA.gov is the U.S. government's official web portal to all federal, state and local government web resources and services.